createdAt,value
2023-09-17T00:00:06.120Z,100.00
2023-09-17T00:02:38.784Z,100.00
2023-09-17T00:05:10.154Z,100.00
2023-09-17T00:07:38.382Z,100.00
2023-09-17T00:10:06.916Z,100.00
2023-09-17T00:12:34.779Z,100.00
2023-09-17T00:15:04.501Z,100.00
2023-09-17T00:17:32.372Z,100.00
2023-09-17T00:20:01.570Z,100.00
2023-09-17T00:22:29.369Z,100.00
2023-09-17T00:24:57.214Z,100.00
2023-09-17T00:27:27.505Z,100.00
2023-09-17T00:29:55.342Z,100.00
2023-09-17T00:32:25.500Z,100.00
2023-09-17T00:34:53.369Z,100.00
2023-09-17T00:37:23.982Z,100.00
2023-09-17T00:39:51.990Z,100.00
2023-09-17T00:42:19.869Z,100.00
2023-09-17T00:44:48.666Z,100.00
2023-09-17T00:47:16.734Z,100.00
2023-09-17T00:49:46.256Z,100.00
2023-09-17T00:52:18.065Z,100.00
2023-09-17T00:54:48.379Z,100.00
2023-09-17T00:57:20.301Z,100.00
2023-09-17T00:59:48.986Z,100.00
2023-09-17T01:02:19.882Z,100.00
2023-09-17T01:04:51.935Z,100.00
2023-09-17T01:07:20.577Z,100.00
2023-09-17T01:09:55.430Z,100.00
2023-09-17T01:12:23.483Z,100.00
2023-09-17T01:14:51.998Z,100.00
2023-09-17T01:17:19.845Z,100.00
2023-09-17T01:19:47.672Z,100.00
2023-09-17T01:22:25.309Z,100.00
2023-09-17T01:25:06.530Z,100.00
2023-09-17T01:27:40.802Z,100.00
2023-09-17T01:30:16.778Z,100.00
2023-09-17T01:32:44.845Z,100.00
2023-09-17T01:35:14.819Z,100.00
2023-09-17T01:37:48.257Z,100.00
2023-09-17T01:40:16.348Z,100.00
2023-09-17T01:42:47.966Z,100.00
2023-09-17T01:45:15.993Z,100.00
2023-09-17T01:47:47.663Z,100.00
2023-09-17T01:50:16.781Z,100.00
2023-09-17T01:52:46.179Z,100.00
2023-09-17T01:55:14.204Z,100.00
2023-09-17T01:57:43.195Z,100.00
2023-09-17T02:00:17.966Z,100.00
2023-09-17T02:02:52.430Z,100.00
2023-09-17T02:05:25.549Z,100.00
2023-09-17T02:07:56.153Z,100.00
2023-09-17T02:10:24.301Z,100.00
2023-09-17T02:12:52.449Z,100.00
2023-09-17T02:15:21.882Z,100.00
2023-09-17T02:17:52.525Z,100.00
2023-09-17T02:20:21.147Z,100.00
2023-09-17T02:22:49.205Z,100.00
2023-09-17T02:25:17.040Z,100.00
2023-09-17T02:27:47.541Z,100.00
2023-09-17T02:30:15.586Z,100.00
2023-09-17T02:32:45.243Z,100.00
2023-09-17T02:35:13.495Z,100.00
2023-09-17T02:37:41.344Z,100.00
2023-09-17T02:40:10.709Z,100.00
2023-09-17T02:42:39.399Z,100.00
2023-09-17T02:45:10.126Z,100.00
2023-09-17T02:47:41.252Z,100.00
2023-09-17T02:50:11.885Z,100.00
2023-09-17T02:52:40.504Z,100.00
2023-09-17T02:55:09.619Z,100.00
2023-09-17T02:57:37.603Z,100.00
2023-09-17T03:00:09.913Z,100.00
2023-09-17T03:02:40.211Z,100.00
2023-09-17T03:05:12.008Z,100.00
2023-09-17T03:07:40.797Z,100.00
2023-09-17T03:10:12.409Z,100.00
2023-09-17T03:12:41.154Z,100.00
2023-09-17T03:15:10.282Z,100.00
2023-09-17T03:17:39.033Z,100.00
2023-09-17T03:20:15.037Z,100.00
2023-09-17T03:22:44.983Z,100.00
2023-09-17T03:25:14.161Z,100.00
2023-09-17T03:27:44.493Z,100.00
2023-09-17T03:30:13.838Z,100.00
2023-09-17T03:32:53.244Z,100.00
2023-09-17T03:35:27.219Z,100.00
2023-09-17T03:37:56.474Z,100.00
2023-09-17T03:40:24.447Z,100.00
2023-09-17T03:42:53.762Z,100.00
2023-09-17T03:45:22.014Z,100.00
2023-09-17T03:47:50.187Z,100.00
2023-09-17T03:50:21.276Z,100.00
2023-09-17T03:52:53.312Z,100.00
2023-09-17T03:55:28.659Z,100.00
2023-09-17T03:57:58.776Z,100.00
2023-09-17T04:00:30.835Z,100.00
2023-09-17T04:02:58.965Z,100.00
2023-09-17T04:05:26.773Z,100.00
2023-09-17T04:07:55.073Z,100.00
2023-09-17T04:10:25.344Z,100.00
2023-09-17T04:12:53.389Z,100.00
2023-09-17T04:15:21.443Z,100.00
2023-09-17T04:17:51.876Z,100.00
2023-09-17T04:20:20.558Z,100.00
2023-09-17T04:22:50.014Z,100.00
2023-09-17T04:25:19.862Z,100.00
2023-09-17T04:27:51.159Z,100.00
2023-09-17T04:30:22.568Z,100.00
2023-09-17T04:32:52.672Z,100.00
2023-09-17T04:35:21.487Z,100.00
2023-09-17T04:37:50.930Z,100.00
2023-09-17T04:40:26.998Z,100.00
2023-09-17T04:43:01.541Z,100.00
2023-09-17T04:45:34.885Z,100.00
2023-09-17T04:48:05.744Z,100.00
2023-09-17T04:50:35.093Z,100.00
2023-09-17T04:53:03.248Z,100.00
2023-09-17T04:55:31.837Z,100.00
2023-09-17T04:58:01.000Z,100.00
2023-09-17T05:00:28.794Z,100.00
2023-09-17T05:02:56.969Z,100.00
2023-09-17T05:05:26.661Z,100.00
2023-09-17T05:07:54.970Z,100.00
2023-09-17T05:10:23.117Z,100.00
2023-09-17T05:12:51.429Z,100.00
2023-09-17T05:15:22.284Z,100.00
2023-09-17T05:17:51.471Z,100.00
2023-09-17T05:20:22.597Z,100.00
2023-09-17T05:22:53.045Z,100.00
2023-09-17T05:25:21.794Z,100.00
2023-09-17T05:27:51.146Z,100.00
2023-09-17T05:30:19.427Z,100.00
2023-09-17T05:32:49.376Z,100.00
2023-09-17T05:35:17.987Z,100.00
2023-09-17T05:37:46.010Z,100.00
2023-09-17T05:40:13.839Z,100.00
2023-09-17T05:42:41.745Z,100.00
2023-09-17T05:45:10.852Z,100.00
2023-09-17T05:47:39.521Z,100.00
2023-09-17T05:50:10.358Z,100.00
2023-09-17T05:52:38.894Z,100.00
2023-09-17T05:55:07.897Z,100.00
2023-09-17T05:57:35.880Z,100.00
2023-09-17T06:00:08.642Z,100.00
2023-09-17T06:02:45.881Z,100.00
2023-09-17T06:05:19.835Z,100.00
2023-09-17T06:07:47.741Z,100.00
2023-09-17T06:10:17.326Z,100.00
2023-09-17T06:12:45.221Z,100.00
2023-09-17T06:15:13.475Z,100.00
2023-09-17T06:17:44.935Z,100.00
2023-09-17T06:20:13.157Z,100.00
2023-09-17T06:22:42.373Z,100.00
2023-09-17T06:25:11.682Z,100.00
2023-09-17T06:27:39.521Z,100.00
2023-09-17T06:30:09.061Z,100.00
2023-09-17T06:32:37.720Z,100.00
2023-09-17T06:35:06.439Z,100.00
2023-09-17T06:37:34.269Z,100.00
2023-09-17T06:40:03.924Z,100.00
2023-09-17T06:42:32.547Z,100.00
2023-09-17T06:45:00.307Z,100.00
2023-09-17T06:47:30.348Z,100.00
2023-09-17T06:49:58.278Z,100.00
2023-09-17T06:52:28.978Z,100.00
2023-09-17T06:54:56.746Z,100.00
2023-09-17T06:57:25.828Z,100.00
2023-09-17T06:59:54.324Z,100.00
2023-09-17T07:02:22.122Z,100.00
2023-09-17T07:04:50.058Z,100.00
2023-09-17T07:07:17.917Z,100.00
2023-09-17T07:09:45.703Z,100.00
2023-09-17T07:12:13.627Z,100.00
2023-09-17T07:14:45.287Z,100.00
2023-09-17T07:17:15.513Z,100.00
2023-09-17T07:19:43.522Z,100.00
2023-09-17T07:22:15.915Z,100.00
2023-09-17T07:24:43.848Z,100.00
2023-09-17T07:27:14.011Z,100.00
2023-09-17T07:29:46.812Z,100.00
2023-09-17T07:32:14.723Z,100.00
2023-09-17T07:34:42.900Z,100.00
2023-09-17T07:37:10.737Z,100.00
2023-09-17T07:39:39.343Z,100.00
2023-09-17T07:42:07.703Z,100.00
2023-09-17T07:44:36.222Z,100.00
2023-09-17T07:47:07.504Z,100.00
2023-09-17T07:49:37.513Z,100.00
2023-09-17T07:52:06.238Z,100.00
2023-09-17T07:54:39.258Z,100.00
2023-09-17T07:57:08.395Z,100.00
2023-09-17T07:59:36.233Z,100.00
2023-09-17T08:02:05.855Z,100.00
2023-09-17T08:04:35.098Z,100.00
2023-09-17T08:07:03.498Z,100.00
2023-09-17T08:09:31.506Z,100.00
2023-09-17T08:11:59.491Z,100.00
2023-09-17T08:14:27.462Z,100.00
2023-09-17T08:16:58.833Z,100.00
2023-09-17T08:19:28.160Z,100.00
2023-09-17T08:21:57.002Z,100.00
2023-09-17T08:24:26.261Z,100.00
2023-09-17T08:26:55.913Z,100.00
2023-09-17T08:29:23.931Z,100.00
2023-09-17T08:31:52.238Z,100.00
2023-09-17T08:34:22.479Z,100.00
2023-09-17T08:36:54.042Z,100.00
2023-09-17T08:39:21.881Z,100.00
2023-09-17T08:41:50.216Z,100.00
2023-09-17T08:44:18.956Z,100.00
2023-09-17T08:46:48.518Z,100.00
2023-09-17T08:49:16.446Z,100.00
2023-09-17T08:51:46.625Z,100.00
2023-09-17T08:54:24.049Z,100.00
2023-09-17T08:56:54.047Z,100.00
2023-09-17T08:59:26.732Z,100.00
2023-09-17T09:01:55.883Z,100.00
2023-09-17T09:04:25.464Z,100.00
2023-09-17T09:06:55.076Z,100.00
2023-09-17T09:09:25.355Z,100.00
2023-09-17T09:11:53.389Z,100.00
2023-09-17T09:14:22.103Z,100.00
2023-09-17T09:16:50.820Z,100.00
2023-09-17T09:19:18.639Z,100.00
2023-09-17T09:21:52.594Z,100.00
2023-09-17T09:24:20.384Z,100.00
2023-09-17T09:26:57.723Z,100.00
2023-09-17T09:29:55.486Z,100.00
2023-09-17T09:32:23.523Z,100.00
2023-09-17T09:34:53.659Z,100.00
2023-09-17T09:37:24.430Z,100.00
2023-09-17T09:39:52.505Z,100.00
2023-09-17T09:42:26.274Z,100.00
2023-09-17T09:44:55.155Z,100.00
2023-09-17T09:47:24.724Z,100.00
2023-09-17T09:49:52.976Z,100.00
2023-09-17T09:52:25.183Z,100.00
2023-09-17T09:54:52.966Z,100.00
2023-09-17T09:57:22.393Z,100.00
2023-09-17T09:59:51.676Z,100.00
2023-09-17T10:02:21.820Z,100.00
2023-09-17T10:04:50.609Z,100.00
2023-09-17T10:07:19.882Z,100.00
2023-09-17T10:09:48.614Z,100.00
2023-09-17T10:12:17.474Z,100.00
2023-09-17T10:14:46.679Z,100.00
2023-09-17T10:17:15.261Z,100.00
2023-09-17T10:19:44.759Z,100.00
2023-09-17T10:22:14.249Z,100.00
2023-09-17T10:24:43.670Z,100.00
2023-09-17T10:27:14.675Z,100.00
2023-09-17T10:29:44.681Z,100.00
2023-09-17T10:32:13.915Z,99.60
2023-09-17T10:34:43.102Z,98.42
2023-09-17T10:37:12.633Z,97.66
2023-09-17T10:39:41.340Z,98.26
2023-09-17T10:42:11.332Z,97.75
2023-09-17T10:44:41.100Z,95.91
2023-09-17T10:47:12.172Z,92.59
2023-09-17T10:49:42.831Z,82.15
2023-09-17T10:52:11.805Z,86.57
2023-09-17T10:54:39.992Z,90.99
2023-09-17T10:57:14.581Z,84.10
2023-09-17T10:59:42.906Z,83.63
2023-09-17T11:02:12.651Z,84.61
2023-09-17T11:04:43.536Z,87.09
2023-09-17T11:07:12.490Z,84.07
2023-09-17T11:09:40.327Z,84.24
2023-09-17T11:12:09.895Z,82.28
2023-09-17T11:14:37.714Z,84.45
2023-09-17T11:17:06.309Z,82.07
2023-09-17T11:19:34.353Z,77.95
2023-09-17T11:22:14.710Z,78.16
2023-09-17T11:24:46.584Z,80.50
2023-09-17T11:27:14.339Z,80.25
2023-09-17T11:29:43.288Z,76.93
2023-09-17T11:32:12.774Z,77.05
2023-09-17T11:34:43.314Z,81.75
2023-09-17T11:37:15.337Z,79.43
2023-09-17T11:39:51.794Z,79.06
2023-09-17T11:42:19.932Z,76.68
2023-09-17T11:44:48.046Z,74.38
2023-09-17T11:47:18.286Z,74.39
2023-09-17T11:49:48.071Z,75.79
2023-09-17T11:52:17.277Z,67.71
2023-09-17T11:54:52.188Z,71.17
2023-09-17T11:57:24.696Z,70.99
2023-09-17T11:59:53.316Z,71.75
2023-09-17T12:02:22.300Z,65.64
2023-09-17T12:04:53.942Z,67.17
2023-09-17T12:07:23.921Z,54.83
2023-09-17T12:10:03.097Z,57.18
2023-09-17T12:12:34.021Z,52.80
2023-09-17T12:15:02.782Z,45.66
2023-09-17T12:17:41.576Z,46.51
2023-09-17T12:20:53.096Z,45.32
2023-09-17T12:24:06.404Z,43.07
2023-09-17T12:26:59.660Z,45.99
2023-09-17T12:29:50.509Z,47.11
2023-09-17T12:32:21.849Z,44.15
2023-09-17T12:34:51.555Z,46.52
2023-09-17T12:37:19.481Z,49.47
2023-09-17T12:39:50.352Z,47.00
2023-09-17T12:42:18.590Z,49.17
2023-09-17T12:44:46.449Z,47.46
2023-09-17T12:47:14.698Z,43.52
2023-09-17T12:49:44.012Z,45.46
2023-09-17T12:52:13.607Z,48.88
2023-09-17T12:54:41.856Z,49.59
2023-09-17T12:57:11.176Z,45.64
2023-09-17T12:59:39.767Z,48.55
2023-09-17T13:02:08.911Z,48.63
2023-09-17T13:04:38.283Z,48.50
2023-09-17T13:07:07.896Z,48.49
2023-09-17T13:09:37.081Z,49.11
2023-09-17T13:12:05.863Z,48.47
2023-09-17T13:14:37.823Z,49.89
2023-09-17T13:17:06.521Z,52.83
2023-09-17T13:19:34.838Z,51.91
2023-09-17T13:22:02.820Z,48.34
2023-09-17T13:24:32.066Z,49.12
2023-09-17T13:27:01.401Z,49.15
2023-09-17T13:29:37.694Z,45.45
2023-09-17T13:32:09.759Z,48.00
2023-09-17T13:34:39.623Z,48.00
2023-09-17T13:37:09.398Z,48.58
2023-09-17T13:39:40.186Z,48.17
2023-09-17T13:42:08.515Z,45.98
2023-09-17T13:44:38.354Z,46.98
2023-09-17T13:47:10.494Z,45.60
2023-09-17T13:49:38.746Z,45.79
2023-09-17T13:52:07.725Z,48.59
2023-09-17T13:54:35.880Z,50.00
2023-09-17T13:57:04.432Z,49.31
2023-09-17T13:59:32.186Z,50.87
2023-09-17T14:02:01.465Z,52.07
2023-09-17T14:04:29.324Z,52.58
2023-09-17T14:06:58.020Z,52.79
2023-09-17T14:09:25.845Z,50.68
2023-09-17T14:11:53.665Z,49.71
2023-09-17T14:14:21.412Z,49.12
2023-09-17T14:16:49.283Z,48.51
2023-09-17T14:19:20.076Z,48.02
2023-09-17T14:21:48.874Z,48.70
2023-09-17T14:24:16.977Z,49.53
2023-09-17T14:26:45.222Z,53.84
2023-09-17T14:29:13.401Z,52.13
2023-09-17T14:31:44.054Z,51.67
2023-09-17T14:34:12.359Z,51.72
2023-09-17T14:36:41.762Z,52.54
2023-09-17T14:39:12.334Z,52.99
2023-09-17T14:41:41.553Z,53.83
2023-09-17T14:44:09.475Z,56.04
2023-09-17T14:46:39.388Z,52.87
2023-09-17T14:49:08.058Z,51.78
2023-09-17T14:51:35.878Z,54.41
2023-09-17T14:54:05.365Z,54.72
2023-09-17T14:56:33.126Z,58.30
2023-09-17T14:59:00.950Z,56.34
2023-09-17T15:01:56.835Z,54.91
2023-09-17T15:04:16.843Z,55.90
2023-09-17T15:06:44.822Z,55.09
2023-09-17T15:09:14.069Z,54.04
2023-09-17T15:11:41.850Z,55.13
2023-09-17T15:14:09.817Z,56.81
2023-09-17T15:16:38.547Z,58.07
2023-09-17T15:19:07.187Z,57.14
2023-09-17T15:21:35.112Z,59.97
2023-09-17T15:24:04.940Z,61.50
2023-09-17T15:26:34.256Z,64.90
2023-09-17T15:29:02.122Z,71.23
2023-09-17T15:31:34.709Z,74.21
2023-09-17T15:34:02.677Z,74.47
2023-09-17T15:36:31.861Z,72.71
2023-09-17T15:38:59.631Z,73.42
2023-09-17T15:41:29.242Z,74.58
2023-09-17T15:43:58.526Z,75.54
2023-09-17T15:46:26.521Z,76.87
2023-09-17T15:48:54.657Z,79.28
2023-09-17T15:51:22.587Z,80.47
2023-09-17T15:53:50.336Z,82.25
2023-09-17T15:56:18.148Z,82.51
2023-09-17T15:58:46.056Z,82.18
2023-09-17T16:01:15.404Z,81.84
2023-09-17T16:03:44.624Z,82.83
2023-09-17T16:06:12.810Z,83.71
2023-09-17T16:08:40.601Z,85.41
2023-09-17T16:11:08.349Z,85.57
2023-09-17T16:13:36.381Z,86.58
2023-09-17T16:16:04.960Z,87.61
2023-09-17T16:18:34.963Z,89.30
2023-09-17T16:21:02.820Z,91.08
2023-09-17T16:23:30.978Z,93.27
2023-09-17T16:25:58.945Z,94.57
2023-09-17T16:28:27.151Z,96.97
2023-09-17T16:30:54.958Z,98.87
2023-09-17T16:33:22.771Z,99.40
2023-09-17T16:35:52.223Z,100.00
2023-09-17T16:38:21.013Z,100.00
2023-09-17T16:40:49.168Z,100.00
2023-09-17T16:43:17.366Z,100.00
2023-09-17T16:45:45.545Z,100.00
2023-09-17T16:48:13.358Z,100.00
2023-09-17T16:50:41.156Z,100.00
2023-09-17T16:53:10.361Z,100.00
2023-09-17T16:55:39.242Z,100.00
2023-09-17T16:58:07.212Z,100.00
2023-09-17T17:00:34.969Z,100.00
2023-09-17T17:03:02.922Z,100.00
2023-09-17T17:05:30.868Z,100.00
2023-09-17T17:07:59.424Z,100.00
2023-09-17T17:10:28.650Z,100.00
2023-09-17T17:12:56.832Z,100.00
2023-09-17T17:15:24.722Z,100.00
2023-09-17T17:17:52.589Z,100.00
2023-09-17T17:20:20.616Z,100.00
2023-09-17T17:22:49.820Z,100.00
2023-09-17T17:25:18.365Z,100.00
2023-09-17T17:27:49.540Z,100.00
2023-09-17T17:30:17.432Z,100.00
2023-09-17T17:32:46.085Z,100.00
2023-09-17T17:35:15.001Z,100.00
2023-09-17T17:37:44.827Z,100.00
2023-09-17T17:40:12.627Z,100.00
2023-09-17T17:42:40.381Z,100.00
2023-09-17T17:45:10.628Z,100.00
2023-09-17T17:47:38.397Z,100.00
2023-09-17T17:50:07.509Z,100.00
2023-09-17T17:52:35.391Z,100.00
2023-09-17T17:55:03.874Z,100.00
2023-09-17T17:57:32.190Z,100.00
2023-09-17T18:00:01.072Z,100.00
2023-09-17T18:02:30.312Z,100.00
2023-09-17T18:04:58.200Z,100.00
2023-09-17T18:07:26.731Z,100.00
2023-09-17T18:09:54.497Z,100.00
2023-09-17T18:12:22.290Z,100.00
2023-09-17T18:14:50.964Z,100.00
2023-09-17T18:17:18.780Z,100.00
2023-09-17T18:19:49.941Z,100.00
2023-09-17T18:22:18.552Z,100.00
2023-09-17T18:24:46.402Z,100.00
2023-09-17T18:27:15.863Z,100.00
2023-09-17T18:29:43.899Z,100.00
2023-09-17T18:32:11.766Z,100.00
2023-09-17T18:34:39.594Z,100.00
2023-09-17T18:37:08.697Z,100.00
2023-09-17T18:39:36.521Z,100.00
2023-09-17T18:42:04.457Z,100.00
2023-09-17T18:44:32.332Z,100.00
2023-09-17T18:47:00.248Z,100.00
2023-09-17T18:49:28.083Z,100.00
2023-09-17T18:51:55.877Z,100.00
2023-09-17T18:54:25.822Z,100.00
2023-09-17T18:56:53.588Z,100.00
2023-09-17T18:59:21.590Z,100.00
2023-09-17T19:01:49.525Z,100.00
2023-09-17T19:04:18.759Z,100.00
2023-09-17T19:06:46.680Z,100.00
2023-09-17T19:09:14.504Z,100.00
2023-09-17T19:11:43.711Z,100.00
2023-09-17T19:14:11.527Z,100.00
2023-09-17T19:16:39.429Z,100.00
2023-09-17T19:19:07.206Z,100.00
2023-09-17T19:21:36.473Z,100.00
2023-09-17T19:24:04.421Z,100.00
2023-09-17T19:26:32.244Z,100.00
2023-09-17T19:29:04.204Z,100.00
2023-09-17T19:31:32.012Z,100.00
2023-09-17T19:34:01.459Z,100.00
2023-09-17T19:36:29.262Z,100.00
2023-09-17T19:38:57.262Z,100.00
2023-09-17T19:41:25.280Z,100.00
2023-09-17T19:43:53.285Z,100.00
2023-09-17T19:46:26.144Z,100.00
2023-09-17T19:48:54.145Z,100.00
2023-09-17T19:51:22.086Z,100.00
2023-09-17T19:53:50.406Z,100.00
2023-09-17T19:56:20.196Z,100.00
2023-09-17T19:58:48.052Z,100.00
2023-09-17T20:01:15.870Z,100.00
2023-09-17T20:03:45.895Z,100.00
2023-09-17T20:06:13.817Z,100.00
2023-09-17T20:08:41.645Z,100.00
2023-09-17T20:11:09.504Z,100.00
2023-09-17T20:13:37.836Z,100.00
2023-09-17T20:16:05.893Z,100.00
2023-09-17T20:18:33.789Z,100.00
2023-09-17T20:21:02.952Z,100.00
2023-09-17T20:23:36.992Z,100.00
2023-09-17T20:26:09.281Z,100.00
2023-09-17T20:28:37.292Z,100.00
2023-09-17T20:31:05.261Z,100.00
2023-09-17T20:33:33.186Z,100.00
2023-09-17T20:36:02.399Z,100.00
2023-09-17T20:38:30.235Z,100.00
2023-09-17T20:40:59.440Z,100.00
2023-09-17T20:43:27.357Z,100.00
2023-09-17T20:45:55.187Z,100.00
2023-09-17T20:48:23.664Z,100.00
2023-09-17T20:50:51.466Z,100.00
2023-09-17T20:53:20.625Z,100.00
2023-09-17T20:55:48.489Z,100.00
2023-09-17T20:58:16.277Z,100.00
2023-09-17T21:00:44.042Z,100.00
2023-09-17T21:03:11.891Z,100.00
2023-09-17T21:05:46.134Z,100.00
2023-09-17T21:08:14.081Z,100.00
2023-09-17T21:10:44.277Z,100.00
2023-09-17T21:13:12.277Z,100.00
2023-09-17T21:15:40.306Z,100.00
2023-09-17T21:18:08.795Z,100.00
2023-09-17T21:20:36.637Z,100.00
2023-09-17T21:23:05.124Z,100.00
2023-09-17T21:25:33.053Z,100.00
2023-09-17T21:28:02.353Z,100.00
2023-09-17T21:30:31.777Z,100.00
2023-09-17T21:33:00.099Z,100.00
2023-09-17T21:35:27.982Z,100.00
2023-09-17T21:37:55.913Z,100.00
2023-09-17T21:40:23.712Z,100.00
2023-09-17T21:42:51.569Z,100.00
2023-09-17T21:45:20.684Z,100.00
2023-09-17T21:47:48.704Z,100.00
2023-09-17T21:50:16.876Z,100.00
2023-09-17T21:52:44.853Z,100.00
2023-09-17T21:55:12.904Z,100.00
2023-09-17T21:57:42.076Z,100.00
2023-09-17T22:00:14.281Z,100.00
2023-09-17T22:02:44.835Z,100.00
2023-09-17T22:05:12.809Z,100.00
2023-09-17T22:07:40.599Z,100.00
2023-09-17T22:10:08.683Z,100.00
2023-09-17T22:12:37.721Z,100.00
2023-09-17T22:15:06.480Z,100.00
2023-09-17T22:17:34.403Z,100.00
2023-09-17T22:20:13.433Z,100.00
2023-09-17T22:22:41.308Z,100.00
2023-09-17T22:25:11.090Z,100.00
2023-09-17T22:27:39.172Z,100.00
2023-09-17T22:30:08.057Z,100.00
2023-09-17T22:32:35.978Z,100.00
2023-09-17T22:35:06.065Z,100.00
2023-09-17T22:37:35.803Z,100.00
2023-09-17T22:40:04.464Z,100.00
2023-09-17T22:42:32.306Z,100.00
2023-09-17T22:45:00.205Z,100.00
2023-09-17T22:47:28.192Z,100.00
2023-09-17T22:49:56.181Z,100.00
2023-09-17T22:52:25.330Z,100.00
2023-09-17T22:54:53.137Z,100.00
2023-09-17T22:57:20.970Z,100.00
2023-09-17T22:59:48.898Z,100.00
2023-09-17T23:02:16.754Z,100.00
2023-09-17T23:04:44.647Z,100.00
2023-09-17T23:07:12.453Z,100.00
2023-09-17T23:09:41.942Z,100.00
2023-09-17T23:12:10.302Z,100.00
2023-09-17T23:14:39.168Z,100.00
2023-09-17T23:17:06.966Z,100.00
2023-09-17T23:19:34.772Z,100.00
2023-09-17T23:22:06.578Z,100.00
2023-09-17T23:24:34.388Z,100.00
2023-09-17T23:27:03.792Z,100.00
2023-09-17T23:29:31.677Z,100.00
2023-09-17T23:31:59.645Z,100.00
2023-09-17T23:34:27.584Z,100.00
2023-09-17T23:36:55.387Z,100.00
2023-09-17T23:39:23.202Z,100.00
2023-09-17T23:41:51.119Z,100.00
2023-09-17T23:44:20.318Z,100.00
2023-09-17T23:46:48.102Z,100.00
2023-09-17T23:49:15.875Z,100.00
2023-09-17T23:51:43.655Z,100.00
2023-09-17T23:54:11.525Z,100.00
2023-09-17T23:56:39.321Z,100.00
2023-09-17T23:59:07.105Z,100.00
